createdAt,value
2019-02-12T00:00:42.098Z,0.00
2019-02-12T00:01:42.193Z,0.00
2019-02-12T00:02:42.276Z,0.00
2019-02-12T00:03:42.358Z,0.00
2019-02-12T00:04:42.457Z,0.00
2019-02-12T00:05:42.548Z,0.00
2019-02-12T00:06:42.640Z,0.00
2019-02-12T00:07:42.724Z,0.00
2019-02-12T00:08:42.814Z,0.00
2019-02-12T00:09:42.903Z,0.00
2019-02-12T00:10:42.988Z,0.00
2019-02-12T00:11:43.076Z,0.00
2019-02-12T00:12:43.161Z,0.00
2019-02-12T00:13:43.243Z,0.00
2019-02-12T00:14:43.333Z,0.00
2019-02-12T00:15:43.427Z,0.00
2019-02-12T00:16:43.503Z,0.00
2019-02-12T00:17:43.600Z,0.00
2019-02-12T00:18:43.683Z,0.00
2019-02-12T00:19:43.769Z,0.00
2019-02-12T00:20:43.858Z,0.00
2019-02-12T00:21:43.945Z,0.00
2019-02-12T00:22:44.037Z,0.00
2019-02-12T00:23:44.112Z,0.00
2019-02-12T00:24:44.202Z,0.00
2019-02-12T00:25:44.285Z,0.00
2019-02-12T00:26:44.376Z,0.00
2019-02-12T00:27:44.465Z,0.00
2019-02-12T00:28:44.547Z,0.00
2019-02-12T00:29:44.619Z,0.00
2019-02-12T00:30:44.692Z,0.00
2019-02-12T00:31:44.785Z,0.00
2019-02-12T00:32:44.873Z,0.00
2019-02-12T00:33:44.944Z,0.00
2019-02-12T00:34:45.032Z,0.00
2019-02-12T00:35:45.111Z,0.00
2019-02-12T00:36:45.201Z,0.00
2019-02-12T00:37:45.295Z,0.00
2019-02-12T00:38:45.378Z,0.00
2019-02-12T00:39:45.458Z,0.00
2019-02-12T00:40:45.539Z,0.00
2019-02-12T00:41:45.621Z,0.00
2019-02-12T00:42:45.713Z,0.00
2019-02-12T00:43:45.794Z,0.00
2019-02-12T00:44:45.873Z,0.00
2019-02-12T00:45:53.110Z,0.00
2019-02-12T00:46:46.068Z,0.00
2019-02-12T00:50:25.385Z,0.00
2019-02-12T00:51:25.472Z,0.00
2019-02-12T00:52:25.559Z,0.00
2019-02-12T00:53:25.649Z,0.00
2019-02-12T00:54:25.737Z,0.00
2019-02-12T00:55:25.820Z,0.00
2019-02-12T00:56:25.907Z,0.00
2019-02-12T00:57:25.995Z,0.00
2019-02-12T00:58:26.080Z,0.00
2019-02-12T00:59:26.168Z,0.00
2019-02-12T01:00:26.255Z,0.00
2019-02-12T01:01:26.343Z,0.00
2019-02-12T01:02:26.432Z,0.00
2019-02-12T01:03:26.518Z,0.00
2019-02-12T01:04:26.605Z,0.00
2019-02-12T01:05:26.691Z,0.00
2019-02-12T01:06:26.778Z,0.00
2019-02-12T01:07:26.868Z,0.00
2019-02-12T01:08:26.955Z,0.00
2019-02-12T01:09:27.047Z,0.00
2019-02-12T01:10:27.133Z,0.00
2019-02-12T01:11:27.213Z,0.00
2019-02-12T01:12:27.299Z,0.00
2019-02-12T01:13:27.373Z,0.00
2019-02-12T01:14:27.468Z,0.00
2019-02-12T01:15:27.555Z,0.00
2019-02-12T01:16:27.647Z,0.00
2019-02-12T01:17:27.719Z,0.00
2019-02-12T01:18:27.814Z,0.00
2019-02-12T01:19:27.901Z,0.00
2019-02-12T01:20:27.987Z,0.00
2019-02-12T01:21:28.075Z,0.00
2019-02-12T01:22:28.164Z,0.00
2019-02-12T01:23:28.252Z,0.00
2019-02-12T01:24:28.341Z,0.00
2019-02-12T01:25:28.422Z,0.00
2019-02-12T01:26:28.507Z,0.00
2019-02-12T01:27:28.598Z,0.00
2019-02-12T01:28:28.686Z,0.00
2019-02-12T01:29:28.771Z,0.00
2019-02-12T01:30:28.860Z,0.00
2019-02-12T01:31:28.948Z,0.00
2019-02-12T01:32:29.036Z,0.00
2019-02-12T01:33:29.126Z,0.00
2019-02-12T01:34:29.213Z,0.00
2019-02-12T01:35:29.323Z,0.00
2019-02-12T01:36:29.410Z,0.00
2019-02-12T01:37:29.497Z,0.00
2019-02-12T01:38:29.592Z,0.00
2019-02-12T01:39:29.676Z,0.00
2019-02-12T01:40:29.763Z,0.00
2019-02-12T01:41:29.863Z,0.00
2019-02-12T01:42:29.944Z,0.00
2019-02-12T01:43:30.027Z,0.00
2019-02-12T01:44:30.111Z,0.00
2019-02-12T01:45:30.199Z,0.00
2019-02-12T01:46:30.283Z,0.00
2019-02-12T01:47:30.369Z,0.00
2019-02-12T01:48:30.452Z,0.00
2019-02-12T01:49:30.543Z,0.00
2019-02-12T01:50:30.619Z,0.00
2019-02-12T01:51:35.177Z,0.00
2019-02-12T01:52:30.796Z,0.00
2019-02-12T01:53:30.878Z,0.00
2019-02-12T01:54:30.966Z,0.00
2019-02-12T01:55:31.054Z,0.00
2019-02-12T01:56:31.141Z,0.00
2019-02-12T01:57:31.214Z,0.00
2019-02-12T01:58:31.305Z,0.00
2019-02-12T01:59:31.395Z,0.00
2019-02-12T02:00:31.461Z,0.00
2019-02-12T02:01:31.565Z,0.00
2019-02-12T02:02:31.641Z,0.00
2019-02-12T02:03:31.723Z,0.00
2019-02-12T02:04:31.805Z,0.00
2019-02-12T02:05:31.890Z,0.00
2019-02-12T02:06:31.976Z,0.00
2019-02-12T02:07:32.044Z,0.00
2019-02-12T02:08:32.170Z,0.00
2019-02-12T02:09:32.238Z,0.00
2019-02-12T02:10:32.352Z,0.00
2019-02-12T02:11:32.515Z,0.00
2019-02-12T02:12:32.585Z,0.00
2019-02-12T02:13:32.663Z,0.00
2019-02-12T02:14:32.788Z,0.00
2019-02-12T02:15:32.868Z,0.00
2019-02-12T02:16:32.923Z,0.00
2019-02-12T02:17:33.006Z,0.00
2019-02-12T02:18:33.097Z,0.00
2019-02-12T02:19:33.173Z,0.00
2019-02-12T02:20:33.266Z,0.00
2019-02-12T02:21:33.349Z,0.00
2019-02-12T02:22:33.444Z,0.00
2019-02-12T02:23:33.527Z,0.00
2019-02-12T02:24:33.618Z,0.00
2019-02-12T02:25:33.690Z,0.00
2019-02-12T02:26:33.772Z,0.00
2019-02-12T02:27:33.855Z,0.00
2019-02-12T02:28:33.953Z,0.00
2019-02-12T02:29:34.028Z,0.00
2019-02-12T02:30:34.103Z,0.00
2019-02-12T02:31:34.182Z,0.00
2019-02-12T02:32:34.279Z,0.00
2019-02-12T02:33:34.349Z,0.00
2019-02-12T02:34:34.422Z,0.00
2019-02-12T02:35:34.520Z,0.00
2019-02-12T02:36:34.585Z,0.00
2019-02-12T02:37:34.685Z,0.00
2019-02-12T02:38:34.773Z,0.00
2019-02-12T02:39:34.854Z,0.00
2019-02-12T02:40:34.948Z,0.00
2019-02-12T02:41:35.032Z,0.00
2019-02-12T02:42:35.119Z,0.00
2019-02-12T02:43:35.220Z,0.00
2019-02-12T02:44:35.288Z,0.00
2019-02-12T02:45:35.377Z,0.00
2019-02-12T02:46:35.463Z,0.00
2019-02-12T02:47:35.555Z,0.00
2019-02-12T02:48:35.643Z,0.00
2019-02-12T02:49:35.731Z,0.00
2019-02-12T02:50:35.811Z,0.00
2019-02-12T02:51:35.900Z,0.00
2019-02-12T02:52:35.988Z,0.00
2019-02-12T02:53:36.076Z,0.00
2019-02-12T02:54:36.148Z,0.00
2019-02-12T02:55:36.233Z,0.00
2019-02-12T02:56:36.311Z,0.00
2019-02-12T02:57:36.393Z,0.00
2019-02-12T02:58:36.488Z,0.00
2019-02-12T02:59:36.574Z,0.00
2019-02-12T03:00:36.665Z,0.00
2019-02-12T03:01:36.750Z,0.00
2019-02-12T03:02:36.834Z,0.00
2019-02-12T03:03:36.913Z,0.00
2019-02-12T03:04:36.997Z,0.00
2019-02-12T03:05:37.087Z,0.00
2019-02-12T03:06:37.172Z,0.00
2019-02-12T03:07:37.267Z,0.00
2019-02-12T03:08:37.341Z,0.00
2019-02-12T03:09:37.421Z,0.00
2019-02-12T03:10:37.511Z,0.00
2019-02-12T03:11:37.585Z,0.00
2019-02-12T03:12:37.688Z,0.00
2019-02-12T03:13:37.773Z,0.00
2019-02-12T03:14:37.878Z,0.00
2019-02-12T03:15:37.967Z,0.00
2019-02-12T03:16:38.054Z,0.00
2019-02-12T03:17:38.142Z,0.00
2019-02-12T03:18:38.223Z,0.00
2019-02-12T03:19:38.312Z,0.00
2019-02-12T03:20:38.428Z,0.00
2019-02-12T03:21:38.475Z,0.00
2019-02-12T03:22:38.559Z,0.00
2019-02-12T03:23:38.636Z,0.00
2019-02-12T03:24:38.741Z,0.00
2019-02-12T03:25:38.827Z,0.00
2019-02-12T03:26:38.899Z,0.00
2019-02-12T03:27:38.995Z,0.00
2019-02-12T03:28:39.080Z,0.00
2019-02-12T03:29:39.168Z,0.00
2019-02-12T03:30:39.251Z,0.00
2019-02-12T03:31:39.330Z,0.00
2019-02-12T03:32:39.441Z,0.00
2019-02-12T03:33:39.496Z,0.00
2019-02-12T03:34:39.584Z,0.00
2019-02-12T03:35:39.672Z,0.00
2019-02-12T03:36:39.755Z,0.00
2019-02-12T03:37:39.852Z,0.00
2019-02-12T03:38:39.946Z,0.00
2019-02-12T03:39:39.998Z,0.00
2019-02-12T03:40:40.088Z,0.00
2019-02-12T03:41:40.170Z,0.00
2019-02-12T03:42:40.252Z,0.00
2019-02-12T03:43:40.324Z,0.00
2019-02-12T03:44:40.422Z,0.00
2019-02-12T03:45:40.510Z,0.00
2019-02-12T03:46:40.592Z,0.00
2019-02-12T03:47:40.675Z,0.00
2019-02-12T03:48:40.756Z,0.00
2019-02-12T03:49:40.854Z,0.00
2019-02-12T03:50:40.934Z,0.00
2019-02-12T03:51:41.019Z,0.00
2019-02-12T03:52:41.104Z,0.00
2019-02-12T03:53:41.186Z,0.00
2019-02-12T03:54:41.269Z,0.00
2019-02-12T03:55:41.351Z,0.00
2019-02-12T03:56:41.441Z,0.00
2019-02-12T03:57:41.521Z,0.00
2019-02-12T03:58:41.618Z,0.00
2019-02-12T03:59:41.700Z,0.00
2019-02-12T04:00:41.796Z,0.00
2019-02-12T04:01:41.888Z,0.00
2019-02-12T04:02:41.976Z,0.00
2019-02-12T04:03:42.059Z,0.00
2019-02-12T04:04:42.150Z,0.00
2019-02-12T04:05:42.230Z,0.00
2019-02-12T04:06:42.327Z,0.00
2019-02-12T04:07:51.054Z,0.00
2019-02-12T04:08:42.511Z,0.00
2019-02-12T04:09:42.596Z,0.00
2019-02-12T04:10:42.680Z,0.00
2019-02-12T04:11:42.762Z,0.00
2019-02-12T04:12:42.853Z,0.00
2019-02-12T04:13:42.937Z,0.00
2019-02-12T04:14:43.023Z,0.00
2019-02-12T04:15:43.126Z,0.00
2019-02-12T04:16:43.197Z,0.00
2019-02-12T04:17:43.285Z,0.00
2019-02-12T04:18:43.383Z,0.00
2019-02-12T04:19:43.444Z,0.00
2019-02-12T04:20:43.529Z,0.00
2019-02-12T04:21:43.609Z,0.00
2019-02-12T04:22:43.694Z,0.00
2019-02-12T04:23:43.777Z,0.00
2019-02-12T04:24:43.865Z,0.00
2019-02-12T04:25:43.950Z,0.00
2019-02-12T04:26:44.035Z,0.00
2019-02-12T04:27:44.126Z,0.00
2019-02-12T04:28:44.214Z,0.00
2019-02-12T04:29:44.303Z,0.00
2019-02-12T04:30:44.401Z,0.00
2019-02-12T04:31:44.486Z,0.00
2019-02-12T04:32:44.560Z,0.00
2019-02-12T04:33:44.681Z,0.00
2019-02-12T04:34:44.734Z,0.00
2019-02-12T04:35:44.822Z,0.00
2019-02-12T04:36:44.903Z,0.00
2019-02-12T04:37:44.980Z,0.00
2019-02-12T04:38:45.081Z,0.00
2019-02-12T04:39:45.170Z,0.00
2019-02-12T04:40:45.281Z,0.00
2019-02-12T04:41:45.339Z,0.00
2019-02-12T04:42:45.424Z,0.00
2019-02-12T04:43:45.509Z,0.00
2019-02-12T04:44:45.595Z,0.00
2019-02-12T04:45:45.695Z,0.00
2019-02-12T04:46:45.770Z,0.00
2019-02-12T04:47:45.862Z,0.00
2019-02-12T04:48:45.942Z,0.00
2019-02-12T04:49:46.019Z,0.00
2019-02-12T04:50:46.117Z,0.00
2019-02-12T04:51:46.199Z,0.00
2019-02-12T04:52:46.287Z,0.00
2019-02-12T04:53:46.377Z,0.00
2019-02-12T04:54:46.453Z,0.00
2019-02-12T04:55:46.539Z,0.00
2019-02-12T04:56:46.625Z,0.00
2019-02-12T04:57:46.717Z,0.00
2019-02-12T04:58:46.817Z,0.00
2019-02-12T04:59:46.887Z,0.00
2019-02-12T05:00:46.973Z,0.00
2019-02-12T05:01:47.085Z,0.00
2019-02-12T05:02:47.172Z,0.00
2019-02-12T05:03:47.260Z,0.00
2019-02-12T05:04:47.350Z,0.00
2019-02-12T05:05:47.434Z,0.00
2019-02-12T05:06:47.526Z,0.00
2019-02-12T05:07:47.624Z,0.00
2019-02-12T05:08:47.694Z,0.00
2019-02-12T05:09:47.786Z,0.00
2019-02-12T05:10:47.862Z,0.00
2019-02-12T05:11:47.946Z,0.00
2019-02-12T05:12:48.042Z,0.00
2019-02-12T05:13:48.121Z,0.00
2019-02-12T05:14:48.203Z,0.00
2019-02-12T05:15:48.293Z,0.00
2019-02-12T05:16:48.382Z,0.00
2019-02-12T05:17:48.465Z,0.00
2019-02-12T05:18:48.562Z,4.00
2019-02-12T05:19:48.645Z,0.00
2019-02-12T05:20:48.737Z,0.00
2019-02-12T05:21:48.822Z,0.00
2019-02-12T05:22:48.902Z,0.00
2019-02-12T05:23:48.985Z,0.00
2019-02-12T05:24:49.078Z,0.00
2019-02-12T05:25:49.166Z,0.00
2019-02-12T05:26:49.258Z,0.00
2019-02-12T05:27:49.344Z,0.00
2019-02-12T05:28:58.063Z,0.00
2019-02-12T05:29:58.159Z,0.00
2019-02-12T05:30:49.619Z,4.00
2019-02-12T05:31:49.712Z,4.00
2019-02-12T05:32:49.799Z,4.00
2019-02-12T05:33:49.884Z,4.00
2019-02-12T05:34:49.986Z,4.00
2019-02-12T05:35:50.077Z,4.00
2019-02-12T05:36:50.165Z,4.00
2019-02-12T05:37:50.253Z,4.00
2019-02-12T05:38:50.346Z,4.00
2019-02-12T05:39:50.427Z,4.00
2019-02-12T05:40:50.522Z,4.00
2019-02-12T05:41:50.609Z,4.00
2019-02-12T05:42:50.710Z,4.00
2019-02-12T05:43:50.784Z,4.00
2019-02-12T05:44:50.930Z,4.00
2019-02-12T05:45:50.971Z,4.00
2019-02-12T05:46:51.053Z,4.00
2019-02-12T05:47:51.140Z,4.00
2019-02-12T05:48:51.227Z,4.00
2019-02-12T05:49:51.315Z,4.00
2019-02-12T05:50:51.410Z,4.00
2019-02-12T05:51:51.540Z,4.00
2019-02-12T05:52:54.507Z,4.00
2019-02-12T05:53:51.671Z,4.00
2019-02-12T05:54:51.755Z,4.00
2019-02-12T05:55:51.856Z,4.00
2019-02-12T05:56:51.938Z,4.00
2019-02-12T05:57:52.027Z,4.00
2019-02-12T05:58:52.112Z,4.00
2019-02-12T05:59:52.223Z,4.00
2019-02-12T06:00:52.314Z,4.00
2019-02-12T06:01:52.409Z,4.00
2019-02-12T06:03:02.154Z,4.00
2019-02-12T06:03:52.606Z,4.00
2019-02-12T06:04:52.699Z,4.00
2019-02-12T06:05:52.784Z,4.00
2019-02-12T06:06:52.865Z,4.00
2019-02-12T06:07:52.952Z,0.00
2019-02-12T06:08:53.038Z,4.00
2019-02-12T06:09:53.110Z,4.00
2019-02-12T06:10:53.199Z,4.00
2019-02-12T06:11:53.291Z,4.00
2019-02-12T06:12:54.424Z,0.00
2019-02-12T06:13:53.523Z,8.00
2019-02-12T06:14:53.610Z,4.00
2019-02-12T06:15:53.694Z,4.00
2019-02-12T06:16:53.778Z,4.00
2019-02-12T06:17:53.881Z,4.00
2019-02-12T06:18:53.964Z,4.00
2019-02-12T06:19:54.059Z,8.00
2019-02-12T06:20:54.148Z,4.00
2019-02-12T06:21:54.279Z,8.00
2019-02-12T06:23:03.064Z,4.00
2019-02-12T06:23:54.405Z,8.00
2019-02-12T06:24:54.497Z,8.00
2019-02-12T06:25:54.587Z,12.00
2019-02-12T06:26:54.674Z,12.00
2019-02-12T06:27:54.760Z,8.00
2019-02-12T06:28:54.846Z,8.00
2019-02-12T06:29:54.934Z,12.00
2019-02-12T06:30:55.015Z,16.00
2019-02-12T06:31:55.130Z,16.00
2019-02-12T06:32:55.299Z,16.00
2019-02-12T06:33:55.249Z,16.00
2019-02-12T06:34:55.331Z,20.00
2019-02-12T06:35:55.423Z,20.00
2019-02-12T06:36:55.515Z,20.00
2019-02-12T06:37:55.605Z,20.00
2019-02-12T06:38:55.691Z,24.00
2019-02-12T06:39:55.779Z,24.00
2019-02-12T06:40:55.871Z,24.00
2019-02-12T06:41:55.960Z,28.00
2019-02-12T06:42:56.048Z,28.00
2019-02-12T06:43:56.139Z,32.00
2019-02-12T06:44:56.221Z,32.00
2019-02-12T06:45:56.319Z,36.00
2019-02-12T06:46:56.405Z,40.00
2019-02-12T06:47:56.489Z,44.00
2019-02-12T06:48:56.579Z,48.00
2019-02-12T06:49:56.717Z,44.00
2019-02-12T06:50:56.751Z,48.00
2019-02-12T06:51:56.845Z,52.00
2019-02-12T06:52:56.935Z,56.00
2019-02-12T06:53:57.022Z,60.00
2019-02-12T06:54:57.135Z,76.00
2019-02-12T06:57:40.258Z,124.00
2019-02-12T06:58:40.338Z,140.00
2019-02-12T06:59:40.417Z,156.00
2019-02-12T07:00:40.530Z,168.00
2019-02-12T07:01:40.577Z,180.00
2019-02-12T07:02:41.891Z,200.00
2019-02-12T07:03:40.748Z,220.00
2019-02-12T07:04:40.855Z,228.00
2019-02-12T07:05:40.944Z,228.00
2019-02-12T07:06:41.073Z,224.00
2019-02-12T07:07:41.132Z,220.00
2019-02-12T07:08:41.196Z,216.00
2019-02-12T07:09:41.297Z,216.00
2019-02-12T07:10:41.388Z,220.00
2019-02-12T07:11:41.472Z,224.00
2019-02-12T07:12:41.564Z,232.00
2019-02-12T07:13:41.641Z,220.00
2019-02-12T07:14:41.740Z,192.00
2019-02-12T07:15:41.857Z,176.00
2019-02-12T07:16:41.943Z,196.00
2019-02-12T07:17:42.021Z,224.00
2019-02-12T07:18:42.144Z,256.00
2019-02-12T07:19:42.186Z,272.00
2019-02-12T07:20:42.275Z,272.00
2019-02-12T07:21:42.362Z,276.00
2019-02-12T07:22:42.474Z,280.00
2019-02-12T07:23:42.585Z,264.00
2019-02-12T07:24:42.663Z,264.00
2019-02-12T07:25:42.749Z,280.00
2019-02-12T07:26:42.835Z,320.00
2019-02-12T07:27:42.925Z,384.00
2019-02-12T07:28:43.020Z,436.00
2019-02-12T07:29:43.106Z,492.00
2019-02-12T07:30:43.190Z,564.00
2019-02-12T07:31:43.278Z,644.00
2019-02-12T07:32:43.370Z,716.00
2019-02-12T07:33:43.465Z,740.00
2019-02-12T07:34:43.538Z,720.00
2019-02-12T07:35:43.626Z,704.00
2019-02-12T07:36:43.721Z,704.00
2019-02-12T07:37:43.819Z,688.00
2019-02-12T07:38:43.881Z,676.00
2019-02-12T07:39:43.971Z,664.00
2019-02-12T07:40:44.064Z,660.00
2019-02-12T07:41:44.152Z,668.00
2019-02-12T07:42:44.248Z,696.00
2019-02-12T07:43:44.323Z,720.00
2019-02-12T07:44:44.405Z,772.00
2019-02-12T07:45:44.497Z,852.00
2019-02-12T07:46:44.586Z,924.00
2019-02-12T07:47:44.658Z,1000.00
2019-02-12T07:48:45.320Z,1044.00
2019-02-12T07:49:44.838Z,1048.00
2019-02-12T07:50:44.927Z,1068.00
2019-02-12T07:51:45.019Z,1116.00
2019-02-12T07:52:45.116Z,1164.00
2019-02-12T07:53:45.196Z,1124.00
2019-02-12T07:54:45.291Z,1076.00
2019-02-12T07:55:45.372Z,1068.00
2019-02-12T07:56:45.466Z,1096.00
2019-02-12T07:57:45.553Z,1112.00
2019-02-12T07:58:45.639Z,1116.00
2019-02-12T07:59:45.726Z,1084.00
2019-02-12T08:00:45.817Z,1088.00
2019-02-12T08:01:45.913Z,1068.00
2019-02-12T08:02:45.996Z,1108.00
2019-02-12T08:03:46.221Z,1296.00
2019-02-12T08:04:46.183Z,1448.00
2019-02-12T08:05:46.274Z,1532.00
2019-02-12T08:06:46.369Z,1560.00
2019-02-12T08:07:46.443Z,1596.00
2019-02-12T08:08:46.531Z,1596.00
2019-02-12T08:09:46.615Z,1552.00
2019-02-12T08:10:46.703Z,1504.00
2019-02-12T08:11:46.807Z,1436.00
2019-02-12T08:12:46.874Z,1344.00
2019-02-12T08:13:46.958Z,1272.00
2019-02-12T08:14:47.049Z,1204.00
2019-02-12T08:15:47.139Z,1100.00
2019-02-12T08:16:47.278Z,968.00
2019-02-12T08:17:47.315Z,908.00
2019-02-12T08:18:47.402Z,1024.00
2019-02-12T08:19:47.491Z,960.00
2019-02-12T08:20:47.580Z,980.00
2019-02-12T08:21:47.663Z,960.00
2019-02-12T08:22:47.752Z,1020.00
2019-02-12T08:23:47.840Z,1112.00
2019-02-12T08:24:47.934Z,1200.00
2019-02-12T08:25:48.012Z,1328.00
2019-02-12T08:26:48.101Z,1232.00
2019-02-12T08:27:48.187Z,1176.00
2019-02-12T08:28:48.279Z,1160.00
2019-02-12T08:29:48.371Z,1168.00
2019-02-12T08:30:48.458Z,1088.00
2019-02-12T08:31:48.545Z,984.00
2019-02-12T08:32:48.643Z,920.00
2019-02-12T08:33:48.728Z,964.00
2019-02-12T08:34:48.816Z,992.00
2019-02-12T08:35:57.066Z,1016.00
2019-02-12T08:36:48.990Z,1116.00
2019-02-12T08:37:49.087Z,1220.00
2019-02-12T08:38:49.175Z,1384.00
2019-02-12T08:39:49.268Z,1548.00
2019-02-12T08:40:49.353Z,1712.00
2019-02-12T08:41:49.442Z,1708.00
2019-02-12T08:42:49.529Z,1692.00
2019-02-12T08:43:49.623Z,1600.00
2019-02-12T08:44:49.712Z,1528.00
2019-02-12T08:45:49.800Z,1468.00
2019-02-12T08:46:49.894Z,1364.00
2019-02-12T08:47:49.972Z,1324.00
2019-02-12T08:48:50.071Z,1328.00
2019-02-12T08:49:50.153Z,1432.00
2019-02-12T08:50:50.240Z,1596.00
2019-02-12T08:51:50.340Z,1664.00
2019-02-12T08:52:50.418Z,1700.00
2019-02-12T08:53:50.894Z,1780.00
2019-02-12T08:54:50.603Z,1756.00
2019-02-12T08:55:50.684Z,1600.00
2019-02-12T08:56:50.772Z,1444.00
2019-02-12T08:57:50.861Z,1352.00
2019-02-12T08:58:50.950Z,1292.00
2019-02-12T08:59:51.037Z,1264.00
2019-02-12T09:00:51.145Z,1340.00
2019-02-12T09:01:51.216Z,1480.00
2019-02-12T09:02:51.306Z,1556.00
2019-02-12T09:03:51.393Z,1600.00
2019-02-12T09:04:51.484Z,1612.00
2019-02-12T09:05:51.574Z,1620.00
2019-02-12T09:06:51.663Z,1580.00
2019-02-12T09:07:51.755Z,1584.00
2019-02-12T09:08:51.866Z,1744.00
2019-02-12T09:09:51.953Z,1684.00
2019-02-12T09:10:52.046Z,1700.00
2019-02-12T09:11:52.132Z,1788.00
2019-02-12T09:12:52.221Z,1744.00
2019-02-12T09:13:52.310Z,1624.00
2019-02-12T09:14:52.422Z,1508.00
2019-02-12T09:15:52.482Z,1436.00
2019-02-12T09:16:52.570Z,1408.00
2019-02-12T09:17:52.659Z,1456.00
2019-02-12T09:18:52.747Z,1336.00
2019-02-12T09:19:52.833Z,1124.00
2019-02-12T09:20:52.946Z,1060.00
2019-02-12T09:21:53.011Z,1192.00
2019-02-12T09:22:53.200Z,1352.00
2019-02-12T09:24:00.239Z,1384.00
2019-02-12T09:24:53.294Z,1240.00
2019-02-12T09:25:53.406Z,1164.00
2019-02-12T09:26:53.481Z,1200.00
2019-02-12T09:27:53.599Z,1124.00
2019-02-12T09:28:53.706Z,1060.00
2019-02-12T09:29:53.800Z,1120.00
2019-02-12T09:30:53.888Z,1228.00
2019-02-12T09:31:53.983Z,1188.00
2019-02-12T09:32:54.078Z,1064.00
2019-02-12T09:33:54.167Z,944.00
2019-02-12T09:34:54.257Z,932.00
2019-02-12T09:35:54.350Z,940.00
2019-02-12T09:36:54.442Z,1072.00
2019-02-12T09:37:54.537Z,1360.00
2019-02-12T09:38:54.630Z,1580.00
2019-02-12T09:39:54.721Z,1572.00
2019-02-12T09:40:54.831Z,1548.00
2019-02-12T09:41:54.924Z,1832.00
2019-02-12T09:45:38.145Z,1276.00
2019-02-12T09:46:38.227Z,1268.00
2019-02-12T09:47:38.313Z,1152.00
2019-02-12T09:48:38.399Z,1200.00
2019-02-12T09:49:38.489Z,1304.00
2019-02-12T09:50:38.573Z,1132.00
2019-02-12T09:51:38.659Z,1036.00
2019-02-12T09:52:38.743Z,1052.00
2019-02-12T09:53:38.842Z,1132.00
2019-02-12T09:54:38.925Z,1204.00
2019-02-12T09:55:39.013Z,1232.00
2019-02-12T09:56:39.107Z,1208.00
2019-02-12T09:57:39.179Z,1132.00
2019-02-12T09:58:39.261Z,1180.00
2019-02-12T09:59:39.347Z,1220.00
2019-02-12T10:00:39.431Z,1360.00
2019-02-12T10:01:39.526Z,1708.00
2019-02-12T10:02:39.602Z,2112.00
2019-02-12T10:03:39.711Z,2444.00
2019-02-12T10:04:39.798Z,2656.00
2019-02-12T10:05:39.889Z,2540.00
2019-02-12T10:06:39.985Z,2728.00
2019-02-12T10:07:40.203Z,2992.00
2019-02-12T10:08:40.171Z,3140.00
2019-02-12T10:09:40.263Z,3392.00
2019-02-12T10:10:50.697Z,3552.00
2019-02-12T10:11:40.407Z,3784.00
2019-02-12T10:12:40.502Z,3764.00
2019-02-12T10:13:40.585Z,3624.00
2019-02-12T10:14:40.683Z,3500.00
2019-02-12T10:15:40.780Z,3580.00
2019-02-12T10:16:40.865Z,3428.00
2019-02-12T10:17:40.956Z,3624.00
2019-02-12T10:18:41.042Z,3780.00
2019-02-12T10:19:41.135Z,3672.00
2019-02-12T10:20:41.221Z,3820.00
2019-02-12T10:21:41.310Z,4080.00
2019-02-12T10:22:41.397Z,4392.00
2019-02-12T10:23:41.495Z,4516.00
2019-02-12T10:24:41.584Z,4700.00
2019-02-12T10:25:41.686Z,4792.00
2019-02-12T10:26:41.760Z,4716.00
2019-02-12T10:27:41.837Z,4744.00
2019-02-12T10:28:48.634Z,4836.00
2019-02-12T10:29:42.010Z,4740.00
2019-02-12T10:30:42.098Z,4768.00
2019-02-12T10:31:42.187Z,4556.00
2019-02-12T10:32:42.275Z,4480.00
2019-02-12T10:33:42.363Z,4704.00
2019-02-12T10:34:42.448Z,4596.00
2019-02-12T10:35:42.543Z,4576.00
2019-02-12T10:36:42.625Z,4752.00
2019-02-12T10:37:42.717Z,4448.00
2019-02-12T10:38:42.807Z,4304.00
2019-02-12T10:39:42.915Z,4052.00
2019-02-12T10:40:42.986Z,4044.00
2019-02-12T10:41:43.091Z,3792.00
2019-02-12T10:42:43.160Z,3584.00
2019-02-12T10:43:43.295Z,3380.00
2019-02-12T10:44:43.345Z,3096.00
2019-02-12T10:45:43.452Z,2560.00
2019-02-12T10:46:43.619Z,2184.00
2019-02-12T10:47:43.627Z,2108.00
2019-02-12T10:48:43.722Z,2160.00
2019-02-12T10:49:43.809Z,2076.00
2019-02-12T10:50:43.900Z,1900.00
2019-02-12T10:51:43.990Z,1580.00
2019-02-12T10:52:44.078Z,1504.00
2019-02-12T10:53:44.178Z,1804.00
2019-02-12T10:54:44.250Z,1808.00
2019-02-12T10:55:44.343Z,1556.00
2019-02-12T10:56:44.432Z,1384.00
2019-02-12T10:57:44.529Z,1348.00
2019-02-12T10:58:44.616Z,1548.00
2019-02-12T10:59:44.693Z,1836.00
2019-02-12T11:00:44.781Z,2164.00
2019-02-12T11:01:44.875Z,2444.00
2019-02-12T11:02:44.967Z,2464.00
2019-02-12T11:03:45.057Z,2288.00
2019-02-12T11:04:45.149Z,2236.00
2019-02-12T11:05:45.237Z,2376.00
2019-02-12T11:06:45.329Z,2540.00
2019-02-12T11:07:45.419Z,2324.00
2019-02-12T11:08:45.516Z,2196.00
2019-02-12T11:09:45.601Z,2328.00
2019-02-12T11:10:45.699Z,2540.00
2019-02-12T11:11:45.788Z,2772.00
2019-02-12T11:12:45.879Z,2764.00
2019-02-12T11:13:45.970Z,2600.00
2019-02-12T11:14:46.060Z,2192.00
2019-02-12T11:15:46.151Z,1860.00
2019-02-12T11:16:46.249Z,1708.00
2019-02-12T11:17:46.327Z,1632.00
2019-02-12T11:18:46.420Z,1668.00
2019-02-12T11:19:46.508Z,1692.00
2019-02-12T11:20:46.592Z,1608.00
2019-02-12T11:21:46.691Z,1692.00
2019-02-12T11:22:46.822Z,1596.00
2019-02-12T11:23:46.876Z,1620.00
2019-02-12T11:24:46.962Z,1840.00
2019-02-12T11:25:47.062Z,2084.00
2019-02-12T11:26:47.138Z,2420.00
2019-02-12T11:27:47.223Z,2600.00
2019-02-12T11:28:47.331Z,2716.00
2019-02-12T11:29:47.434Z,2732.00
2019-02-12T11:30:47.531Z,2712.00
2019-02-12T11:31:47.620Z,2492.00
2019-02-12T11:32:47.713Z,2136.00
2019-02-12T11:33:47.799Z,1888.00
2019-02-12T11:34:47.893Z,1920.00
2019-02-12T11:35:47.978Z,1780.00
2019-02-12T11:36:48.077Z,1904.00
2019-02-12T11:37:48.169Z,1848.00
2019-02-12T11:38:48.257Z,1908.00
2019-02-12T11:39:48.347Z,1880.00
2019-02-12T11:40:48.433Z,1792.00
2019-02-12T11:41:48.523Z,1564.00
2019-02-12T11:42:48.604Z,1532.00
2019-02-12T11:43:48.704Z,1552.00
2019-02-12T11:44:48.793Z,1528.00
2019-02-12T11:45:48.879Z,1448.00
2019-02-12T11:46:48.969Z,1564.00
2019-02-12T11:47:49.058Z,1712.00
2019-02-12T11:48:49.149Z,1904.00
2019-02-12T11:49:49.238Z,2244.00
2019-02-12T11:50:49.324Z,2832.00
2019-02-12T11:51:49.417Z,3324.00
2019-02-12T11:52:49.508Z,3596.00
2019-02-12T11:53:49.597Z,3660.00
2019-02-12T11:54:49.688Z,3836.00
2019-02-12T11:55:49.774Z,3980.00
2019-02-12T11:56:49.871Z,3876.00
2019-02-12T11:57:49.962Z,3560.00
2019-02-12T11:58:50.083Z,3212.00
2019-02-12T11:59:50.141Z,2916.00
2019-02-12T12:00:50.225Z,2708.00
2019-02-12T12:01:50.314Z,2480.00
2019-02-12T12:02:50.411Z,2040.00
2019-02-12T12:03:50.493Z,1748.00
2019-02-12T12:04:50.580Z,1640.00
2019-02-12T12:05:50.666Z,1616.00
2019-02-12T12:06:50.763Z,1628.00
2019-02-12T12:07:50.841Z,1428.00
2019-02-12T12:08:50.938Z,1288.00
2019-02-12T12:09:51.024Z,1128.00
2019-02-12T12:10:51.114Z,1004.00
2019-02-12T12:11:51.208Z,884.00
2019-02-12T12:12:51.293Z,892.00
2019-02-12T12:13:51.382Z,908.00
2019-02-12T12:14:51.468Z,992.00
2019-02-12T12:15:51.560Z,1124.00
2019-02-12T12:16:51.649Z,1084.00
2019-02-12T12:17:51.741Z,1140.00
2019-02-12T12:18:51.831Z,1220.00
2019-02-12T12:19:51.935Z,1380.00
2019-02-12T12:20:52.049Z,1516.00
2019-02-12T12:21:52.145Z,1812.00
2019-02-12T12:22:52.228Z,2124.00
2019-02-12T12:23:52.321Z,2056.00
2019-02-12T12:24:52.409Z,2040.00
2019-02-12T12:25:52.498Z,2020.00
2019-02-12T12:26:52.589Z,2112.00
2019-02-12T12:27:52.680Z,2192.00
2019-02-12T12:28:52.767Z,2136.00
2019-02-12T12:29:52.858Z,2092.00
2019-02-12T12:30:52.948Z,2156.00
2019-02-12T12:31:53.044Z,2312.00
2019-02-12T12:32:53.126Z,2648.00
2019-02-12T12:33:53.218Z,2908.00
2019-02-12T12:34:53.313Z,3108.00
2019-02-12T12:35:53.403Z,3212.00
2019-02-12T12:36:53.489Z,3268.00
2019-02-12T12:37:53.580Z,3388.00
2019-02-12T12:38:53.672Z,3116.00
2019-02-12T12:39:53.761Z,2844.00
2019-02-12T12:40:53.852Z,2732.00
2019-02-12T12:41:53.944Z,2776.00
2019-02-12T12:42:54.035Z,2852.00
2019-02-12T12:43:54.125Z,2888.00
2019-02-12T12:44:54.212Z,2856.00
2019-02-12T12:45:54.302Z,2940.00
2019-02-12T12:46:54.395Z,3028.00
2019-02-12T12:47:54.488Z,3084.00
2019-02-12T12:48:54.578Z,3252.00
2019-02-12T12:49:54.661Z,3192.00
2019-02-12T12:50:54.755Z,3144.00
2019-02-12T12:51:54.848Z,3188.00
2019-02-12T12:52:54.947Z,3172.00